Meeker, Washington
Current Conditions -  °F | °C
As of 2:08 PM on Monday 20 Oct 2014 (Local Time) from KTCM Reporting Station
Light Rain Light Rain  
Wind Chill: 59°   Ceiling: 5000
Heat Index: 59°   Visibility: 10mi
Dew Point: 57°   Wind: 5mph
Humidity: 94%   Direction: 230°SW
Pressure: 29.76"   Gusts: NA
Location:  47.1905°N, 122.328°W
Report Text: KTCM 202108Z AUTO 23004KT 10SM -RA SCT042 BKN050 OVC075 15/14 A2976 RMK AO2
Loading
Personal Weather Stations






























Interactive Weather Map
Tropical Storm Tracking
New forecast layout! Learn more

10-Day Weather Forecast

Advertisements
Track Severe Weather on mobile